Time;durP1;ratioP1;P1;durP2;ratioP2;P2;SDS_P1;SDS_P2;PMS_P1;PMS_P2;Temp;Humidity;BMP_temperature;BMP_pressure;BME280_temperature;BME280_humidity;BME280_pressure;Samples;Min_cycle;Max_cycle;Signal;HPM_P1;HPM_P2
2021/12/18 00:02:12;;;;;;;;;;;;;;;;;;5091836;28;43804;-69
2021/12/18 00:04:39;;;;;;;;;;;;;;;;;;5091715;28;43175;-70
2021/12/18 00:07:05;;;;;;;;;;;;;;;;;;5108332;28;46594;-70
2021/12/18 00:09:33;;;;;;;;;;;;;;;;;;5091867;28;45506;-69
2021/12/18 00:12:17;;;;;;;;;;;;;;;;;;5092786;28;43457;-68
2021/12/18 00:14:44;;;;;;;;;;;;;;;;;;5093962;28;44344;-68
2021/12/18 00:17:10;;;;;;;;;;;;;;;;;;5105923;28;47248;-68
2021/12/18 00:19:37;;;;;;;;;;;;;;;;;;5071896;28;45715;-68
2021/12/18 00:22:03;;;;;;;;;;;;;;;;;;5071346;28;46034;-68
2021/12/18 00:24:29;;;;;;;;;;;;;;;;;;5075531;28;45067;-68
2021/12/18 00:26:56;;;;;;;;;;;;;;;;;;5076280;28;46813;-69
2021/12/18 00:29:22;;;;;;;;;;;;;;;;;;5075851;28;44703;-69
2021/12/18 00:31:49;;;;;;;;;;;;;;;;;;5075842;28;43935;-69
2021/12/18 00:34:15;;;;;;;;;;;;;;;;;;5076856;28;41969;-69
2021/12/18 00:36:42;;;;;;;;;;;;;;;;;;5076163;28;44358;-69
2021/12/18 00:39:09;;;;;;;;;;;;;;;;;;5077338;28;46401;-69
2021/12/18 00:44:13;;;;;;;;;;;;;;;;;;5075491;28;46431;-69
2021/12/18 00:46:40;;;;;;;;;;;;;;;;;;5074902;28;47360;-69
2021/12/18 00:49:06;;;;;;;;;;;;;;;;;;5074554;28;43569;-69
2021/12/18 00:51:32;;;;;;;;;;;;;;;;;;5075837;28;41592;-69
2021/12/18 00:53:59;;;;;;;;;;;;;;;;;;5074464;28;44813;-69
2021/12/18 00:56:25;;;;;;;;;;;;;;;;;;5075497;28;47463;-69
2021/12/18 00:58:52;;;;;;;;;;;;;;;;;;5075628;28;46503;-70
2021/12/18 01:01:19;;;;;;;;;;;;;;;;;;5075603;28;43882;-69
2021/12/18 01:03:47;;;;;;;;;;;;;;;;;;5076626;28;44840;-69
2021/12/18 01:06:13;;;;;;;;;;;;;;;;;;5075100;28;45930;-69
2021/12/18 01:08:40;;;;;;;;;;;;;;;;;;5075540;28;46784;-70
2021/12/18 01:13:47;;;;;;;;;;;;;;;;;;5076053;28;45461;-69
2021/12/18 01:16:20;;;;;;;;;;;;;;;;;;5075108;28;47227;-69
2021/12/18 01:24:16;;;;;;;;;;;;;;;;;;5096274;28;43987;-69
2021/12/18 01:26:43;;;;;;;;;;;;;;;;;;5096378;28;46175;-69
2021/12/18 01:29:09;;;;;;;;;;;;;;;;;;5096237;28;43134;-69
2021/12/18 01:31:36;;;;;;;;;;;;;;;;;;5096169;28;42989;-69
2021/12/18 01:34:02;;;;;;;;;;;;;;;;;;5095383;28;44456;-69
2021/12/18 01:36:29;;;;;;;;;;;;;;;;;;5078830;28;47436;-70
2021/12/18 01:38:56;;;;;;;;;;;;;;;;;;5096076;28;45966;-69
2021/12/18 01:41:22;;;;;;;;;;;;;;;;;;5095845;28;44046;-69
2021/12/18 01:46:45;;;;;;;;;;;;;;;;;;5095207;28;45832;-69
2021/12/18 01:54:42;;;;;;;;;;;;;;;;;;5094220;28;43874;-69
2021/12/18 01:57:08;;;;;;;;;;;;;;;;;;5094391;28;45540;-69
2021/12/18 01:59:34;;;;;;;;;;;;;;;;;;5094363;28;46568;-69
2021/12/18 02:02:01;;;;;;;;;;;;;;;;;;5095639;28;44892;-69
2021/12/18 02:04:27;;;;;;;;;;;;;;;;;;5095052;28;46255;-69
2021/12/18 02:06:54;;;;;;;;;;;;;;;;;;5093093;28;47466;-69
2021/12/18 02:09:24;;;;;;;;;;;;;;;;;;5094393;28;46753;-69
2021/12/18 02:11:52;;;;;;;;;;;;;;;;;;5094169;28;45165;-69
2021/12/18 02:20:10;;;;;;;;;;;;;;;;;;5073485;28;45500;-69
2021/12/18 02:22:37;;;;;;;;;;;;;;;;;;5074867;28;43325;-69
2021/12/18 02:25:03;;;;;;;;;;;;;;;;;;5073685;28;44977;-69
2021/12/18 02:27:30;;;;;;;;;;;;;;;;;;5075068;28;48378;-69
2021/12/18 02:29:58;;;;;;;;;;;;;;;;;;5073772;28;47271;-69
2021/12/18 02:32:25;;;;;;;;;;;;;;;;;;5072672;28;42506;-69
2021/12/18 02:34:56;;;;;;;;;;;;;;;;;;5073552;28;45239;-70
2021/12/18 02:37:23;;;;;;;;;;;;;;;;;;5074177;28;44358;-69
2021/12/18 02:42:29;;;;;;;;;;;;;;;;;;5074865;28;44166;-69
2021/12/18 02:44:56;;;;;;;;;;;;;;;;;;5072531;28;44295;-69
2021/12/18 02:47:22;;;;;;;;;;;;;;;;;;5073302;28;46138;-69
2021/12/18 02:49:49;;;;;;;;;;;;;;;;;;5072918;28;44524;-69
2021/12/18 02:52:15;;;;;;;;;;;;;;;;;;5071176;28;44749;-69
2021/12/18 02:54:42;;;;;;;;;;;;;;;;;;5053305;28;44806;-69
2021/12/18 02:57:08;;;;;;;;;;;;;;;;;;5052567;28;47314;-69
2021/12/18 02:59:35;;;;;;;;;;;;;;;;;;5053866;28;46770;-69
2021/12/18 03:02:03;;;;;;;;;;;;;;;;;;5054612;28;41733;-69
2021/12/18 03:04:34;;;;;;;;;;;;;;;;;;5052188;28;45399;-69
2021/12/18 03:07:03;;;;;;;;;;;;;;;;;;5053232;28;44181;-69
2021/12/18 03:25:43;;;;;;;;;;;;;;;;;;5094105;28;44341;-69
2021/12/18 03:28:10;;;;;;;;;;;;;;;;;;5094023;28;46134;-69
2021/12/18 03:30:36;;;;;;;;;;;;;;;;;;5094240;28;45253;-69
2021/12/18 03:33:03;;;;;;;;;;;;;;;;;;5094023;28;44220;-69
2021/12/18 03:35:29;;;;;;;;;;;;;;;;;;5093914;28;44115;-69
2021/12/18 03:37:55;;;;;;;;;;;;;;;;;;5094839;28;48020;-69
2021/12/18 03:40:22;;;;;;;;;;;;;;;;;;5094459;28;46265;-69
2021/12/18 03:42:48;;;;;;;;;;;;;;;;;;5094434;28;43749;-69
2021/12/18 03:45:15;;;;;;;;;;;;;;;;;;5093977;28;45411;-69
2021/12/18 03:47:41;;;;;;;;;;;;;;;;;;5094162;28;45100;-69
2021/12/18 03:50:07;;;;;;;;;;;;;;;;;;5094758;28;47388;-69
2021/12/18 03:52:34;;;;;;;;;;;;;;;;;;5094597;28;43694;-69
2021/12/18 03:55:00;;;;;;;;;;;;;;;;;;5094406;28;45354;-69
2021/12/18 03:57:26;;;;;;;;;;;;;;;;;;5094593;28;47117;-69
2021/12/18 03:59:53;;;;;;;;;;;;;;;;;;5094143;28;45476;-69
2021/12/18 04:02:19;;;;;;;;;;;;;;;;;;5094462;28;42140;-69
2021/12/18 04:04:46;;;;;;;;;;;;;;;;;;5094265;28;43683;-69
2021/12/18 04:07:13;;;;;;;;;;;;;;;;;;5109926;28;44848;-69
2021/12/18 04:09:40;;;;;;;;;;;;;;;;;;5109832;28;45383;-69
2021/12/18 04:12:06;;;;;;;;;;;;;;;;;;5094098;28;42654;-69
2021/12/18 04:14:33;;;;;;;;;;;;;;;;;;5110126;28;42778;-69
2021/12/18 04:16:59;;;;;;;;;;;;;;;;;;5109911;28;45833;-69
2021/12/18 04:19:26;;;;;;;;;;;;;;;;;;5092889;28;44529;-69
2021/12/18 04:21:52;;;;;;;;;;;;;;;;;;5093290;28;42543;-69
2021/12/18 04:24:18;;;;;;;;;;;;;;;;;;5108905;28;44238;-69
2021/12/18 04:26:45;;;;;;;;;;;;;;;;;;5092582;28;45832;-69
2021/12/18 04:29:11;;;;;;;;;;;;;;;;;;5092781;28;45237;-69
2021/12/18 04:31:38;;;;;;;;;;;;;;;;;;5092903;28;45759;-70
2021/12/18 04:34:04;;;;;;;;;;;;;;;;;;5093873;28;43769;-69
2021/12/18 04:36:30;;;;;;;;;;;;;;;;;;5109141;28;46857;-69
2021/12/18 04:38:57;;;;;;;;;;;;;;;;;;5093798;28;45900;-69
2021/12/18 04:41:36;;;;;;;;;;;;;;;;;;5093821;28;42849;-69
2021/12/18 04:44:02;;;;;;;;;;;;;;;;;;5109460;28;44840;-69
2021/12/18 04:46:28;;;;;;;;;;;;;;;;;;5092983;28;46095;-70
2021/12/18 04:48:55;;;;;;;;;;;;;;;;;;5093991;28;45343;-69
2021/12/18 04:51:22;;;;;;;;;;;;;;;;;;5093549;28;44570;-69
2021/12/18 04:53:48;;;;;;;;;;;;;;;;;;5093653;28;41223;-69
2021/12/18 04:56:14;;;;;;;;;;;;;;;;;;5093163;28;44346;-69
2021/12/18 04:58:41;;;;;;;;;;;;;;;;;;5093253;28;45272;-69
2021/12/18 05:01:07;;;;;;;;;;;;;;;;;;5093494;28;41902;-69
2021/12/18 05:03:35;;;;;;;;;;;;;;;;;;5093413;28;44241;-69
2021/12/18 05:06:03;;;;;;;;;;;;;;;;;;5091826;28;45750;-69
2021/12/18 05:08:29;;;;;;;;;;;;;;;;;;5093596;28;43704;-69
2021/12/18 05:10:56;;;;;;;;;;;;;;;;;;5111900;28;44460;-69
2021/12/18 05:13:22;;;;;;;;;;;;;;;;;;5096098;28;43214;-69
2021/12/18 05:15:49;;;;;;;;;;;;;;;;;;5096059;28;46433;-69
2021/12/18 05:18:15;;;;;;;;;;;;;;;;;;5095988;28;43854;-69
2021/12/18 05:20:42;;;;;;;;;;;;;;;;;;5096561;28;43917;-69
2021/12/18 05:23:08;;;;;;;;;;;;;;;;;;5096556;28;45008;-69
2021/12/18 05:25:34;;;;;;;;;;;;;;;;;;5096393;28;44738;-69
2021/12/18 05:28:01;;;;;;;;;;;;;;;;;;5096017;28;45441;-69
2021/12/18 05:30:27;;;;;;;;;;;;;;;;;;5096767;28;41553;-69
2021/12/18 05:32:54;;;;;;;;;;;;;;;;;;5096351;28;43382;-69
2021/12/18 05:35:20;;;;;;;;;;;;;;;;;;5096266;28;47674;-69
2021/12/18 05:37:49;;;;;;;;;;;;;;;;;;5096128;28;44927;-69
2021/12/18 05:40:16;;;;;;;;;;;;;;;;;;5095978;28;41244;-69
2021/12/18 05:42:45;;;;;;;;;;;;;;;;;;5095835;28;45375;-69
2021/12/18 05:45:11;;;;;;;;;;;;;;;;;;5077680;28;45537;-69
2021/12/18 05:47:38;;;;;;;;;;;;;;;;;;5095674;28;46290;-69
2021/12/18 05:50:04;;;;;;;;;;;;;;;;;;5076710;28;43503;-69
2021/12/18 05:52:31;;;;;;;;;;;;;;;;;;5095364;28;43813;-69
2021/12/18 05:54:57;;;;;;;;;;;;;;;;;;5095488;28;47070;-69
2021/12/18 05:57:24;;;;;;;;;;;;;;;;;;5095028;28;45223;-69
2021/12/18 05:59:50;;;;;;;;;;;;;;;;;;5095365;28;43464;-69
2021/12/18 06:02:16;;;;;;;;;;;;;;;;;;5095707;28;45896;-69
2021/12/18 06:04:43;;;;;;;;;;;;;;;;;;5095848;28;46295;-69
2021/12/18 06:07:16;;;;;;;;;;;;;;;;;;5095258;28;46383;-69
2021/12/18 06:09:43;;;;;;;;;;;;;;;;;;5095882;28;45398;-69
2021/12/18 06:12:11;;;;;;;;;;;;;;;;;;5095382;28;44221;-69
2021/12/18 06:14:38;;;;;;;;;;;;;;;;;;5095310;28;47328;-69
2021/12/18 06:17:06;;;;;;;;;;;;;;;;;;5095166;28;44044;-69
2021/12/18 06:19:32;;;;;;;;;;;;;;;;;;5095221;28;44148;-68
2021/12/18 06:21:59;;;;;;;;;;;;;;;;;;5094469;28;43296;-68
2021/12/18 06:24:28;;;;;;;;;;;;;;;;;;5095096;28;45825;-68
2021/12/18 06:26:55;;;;;;;;;;;;;;;;;;5091870;28;42818;-68
2021/12/18 06:29:22;;;;;;;;;;;;;;;;;;5093470;28;42531;-68
2021/12/18 06:31:48;;;;;;;;;;;;;;;;;;5093044;28;44202;-68
2021/12/18 06:34:14;;;;;;;;;;;;;;;;;;5093596;28;46079;-68
2021/12/18 06:36:41;;;;;;;;;;;;;;;;;;5093240;28;44225;-69
2021/12/18 06:39:07;;;;;;;;;;;;;;;;;;5075728;28;44122;-68
2021/12/18 06:41:34;;;;;;;;;;;;;;;;;;5090877;28;44405;-68
2021/12/18 06:44:00;;;;;;;;;;;;;;;;;;5093339;28;47691;-70
2021/12/18 06:46:26;;;;;;;;;;;;;;;;;;5075754;28;44072;-70
2021/12/18 06:48:53;;;;;;;;;;;;;;;;;;5091575;28;42180;-70
2021/12/18 06:51:23;;;;;;;;;;;;;;;;;;5093876;28;41945;-70
2021/12/18 06:53:49;;;;;;;;;;;;;;;;;;5093680;28;46646;-70
2021/12/18 06:56:15;;;;;;;;;;;;;;;;;;5093074;28;46683;-70
2021/12/18 06:58:42;;;;;;;;;;;;;;;;;;5093686;28;43266;-69
2021/12/18 07:01:08;;;;;;;;;;;;;;;;;;5092882;28;45545;-70
2021/12/18 07:03:35;;;;;;;;;;;;;;;;;;5092780;28;45856;-69
2021/12/18 07:06:01;;;;;;;;;;;;;;;;;;5092978;28;45012;-69
2021/12/18 07:08:28;;;;;;;;;;;;;;;;;;5093111;28;42807;-69
2021/12/18 07:10:54;;;;;;;;;;;;;;;;;;5092743;28;42851;-69
2021/12/18 07:13:23;;;;;;;;;;;;;;;;;;5093165;28;44291;-70
2021/12/18 07:16:02;;;;;;;;;;;;;;;;;;5091719;28;45382;-69
2021/12/18 07:18:45;;;;;;;;;;;;;;;;;;5087459;28;19924;-69
2021/12/18 07:21:12;;;;;;;;;;;;;;;;;;5093558;28;43236;-69
2021/12/18 07:23:40;;;;;;;;;;;;;;;;;;5075296;28;47576;-69
2021/12/18 07:26:06;;;;;;;;;;;;;;;;;;5074685;28;44659;-69
2021/12/18 07:28:33;;;;;;;;;;;;;;;;;;5092366;28;43690;-69
2021/12/18 07:30:59;;;;;;;;;;;;;;;;;;5091613;28;43929;-69
2021/12/18 07:33:26;;;;;;;;;;;;;;;;;;5092407;28;46051;-69
2021/12/18 07:35:52;;;;;;;;;;;;;;;;;;5074996;28;44311;-69
2021/12/18 07:38:19;;;;;;;;;;;;;;;;;;5075712;28;42493;-69
2021/12/18 07:40:45;;;;;;;;;;;;;;;;;;5093720;28;45049;-69
2021/12/18 07:43:12;;;;;;;;;;;;;;;;;;5075938;28;44868;-69
2021/12/18 07:45:38;;;;;;;;;;;;;;;;;;5075909;28;45240;-69
2021/12/18 07:48:05;;;;;;;;;;;;;;;;;;5092935;28;44864;-70
2021/12/18 07:50:32;;;;;;;;;;;;;;;;;;5087376;28;45445;-69
2021/12/18 07:53:01;;;;;;;;;;;;;;;;;;5093367;28;45667;-69
2021/12/18 07:55:28;;;;;;;;;;;;;;;;;;5093118;28;44004;-70
2021/12/18 07:57:56;;;;;;;;;;;;;;;;;;5093118;28;42873;-69
2021/12/18 08:00:22;;;;;;;;;;;;;;;;;;5092962;28;44801;-69
2021/12/18 08:02:49;;;;;;;;;;;;;;;;;;5075293;28;47750;-69
2021/12/18 08:05:17;;;;;;;;;;;;;;;;;;5082137;28;43744;-69
2021/12/18 08:07:44;;;;;;;;;;;;;;;;;;5083876;28;43695;-69
2021/12/18 08:10:10;;;;;;;;;;;;;;;;;;5075120;28;43915;-69
2021/12/18 08:12:37;;;;;;;;;;;;;;;;;;5093261;28;49037;-69
2021/12/18 08:15:03;;;;;;;;;;;;;;;;;;5092405;28;45237;-69
2021/12/18 08:17:30;;;;;;;;;;;;;;;;;;5073972;28;41098;-69
2021/12/18 08:19:56;;;;;;;;;;;;;;;;;;5091896;28;43411;-69
2021/12/18 08:22:26;;;;;;;;;;;;;;;;;;5090982;28;44951;-69
2021/12/18 08:24:52;;;;;;;;;;;;;;;;;;5089742;28;46707;-70
2021/12/18 08:27:19;;;;;;;;;;;;;;;;;;5090277;28;42668;-68
2021/12/18 08:29:45;;;;;;;;;;;;;;;;;;5073472;28;42580;-69
2021/12/18 08:32:12;;;;;;;;;;;;;;;;;;5073628;28;48070;-68
2021/12/18 08:34:38;;;;;;;;;;;;;;;;;;5091181;28;46852;-68
2021/12/18 08:37:05;;;;;;;;;;;;;;;;;;5092623;28;43241;-69
2021/12/18 08:39:31;;;;;;;;;;;;;;;;;;5073196;28;43905;-69
2021/12/18 08:41:59;;;;;;;;;;;;;;;;;;5072893;28;45774;-69
2021/12/18 08:44:25;;;;;;;;;;;;;;;;;;5074861;28;47716;-69
2021/12/18 08:46:52;;;;;;;;;;;;;;;;;;5076202;28;42127;-69
2021/12/18 08:49:18;;;;;;;;;;;;;;;;;;5057322;28;44304;-69
2021/12/18 08:51:52;;;;;;;;;;;;;;;;;;5059161;28;46186;-70
2021/12/18 08:54:18;;;;;;;;;;;;;;;;;;5076097;28;47685;-69
2021/12/18 08:57:04;;;;;;;;;;;;;;;;;;5060526;28;43920;-69
2021/12/18 08:59:31;;;;;;;;;;;;;;;;;;5074741;28;43912;-69
2021/12/18 09:01:57;;;;;;;;;;;;;;;;;;5074512;28;47262;-69
2021/12/18 09:04:23;;;;;;;;;;;;;;;;;;5074812;28;45996;-69
2021/12/18 09:06:50;;;;;;;;;;;;;;;;;;5056679;28;42372;-69
2021/12/18 09:09:16;;;;;;;;;;;;;;;;;;5056636;28;43647;-69
2021/12/18 09:11:43;;;;;;;;;;;;;;;;;;5074935;28;48751;-69
2021/12/18 09:14:09;;;;;;;;;;;;;;;;;;5056442;28;44211;-69
2021/12/18 09:16:36;;;;;;;;;;;;;;;;;;5073854;28;44153;-69
2021/12/18 09:19:02;;;;;;;;;;;;;;;;;;5089337;28;45530;-69
2021/12/18 09:21:30;;;;;;;;;;;;;;;;;;5088228;28;43784;-66
2021/12/18 09:23:56;;;;;;;;;;;;;;;;;;5112951;28;45532;-65
2021/12/18 09:26:23;;;;;;;;;;;;;;;;;;5097440;28;42230;-65
2021/12/18 09:28:51;;;;;;;;;;;;;;;;;;5096985;28;45585;-66
2021/12/18 09:31:18;;;;;;;;;;;;;;;;;;5079590;28;45912;-66
2021/12/18 09:33:46;;;;;;;;;;;;;;;;;;5079256;28;45424;-65
2021/12/18 09:36:13;;;;;;;;;;;;;;;;;;5077877;28;44838;-66
2021/12/18 09:38:39;;;;;;;;;;;;;;;;;;5095764;28;47409;-67
2021/12/18 09:41:06;;;;;;;;;;;;;;;;;;5095292;28;45346;-66
2021/12/18 09:43:33;;;;;;;;;;;;;;;;;;5076569;28;45288;-65
2021/12/18 09:46:20;;;;;;;;;;;;;;;;;;5095662;28;19928;-65
2021/12/18 09:48:48;;;;;;;;;;;;;;;;;;5096900;28;44216;-65
2021/12/18 09:51:23;;;;;;;;;;;;;;;;;;5078044;28;47246;-67
2021/12/18 09:53:51;;;;;;;;;;;;;;;;;;5093032;28;45090;-66
2021/12/18 09:56:19;;;;;;;;;;;;;;;;;;5093772;28;43651;-66
2021/12/18 09:59:03;;;;;;;;;;;;;;;;;;5093872;28;19924;-65
2021/12/18 10:01:54;;;;;;;;;;;;;;;;;;5091900;28;19928;-67
2021/12/18 10:04:20;;;;;;;;;;;;;;;;;;5093543;28;45177;-66
2021/12/18 10:06:49;;;;;;;;;;;;;;;;;;5094847;28;44230;-66
2021/12/18 10:09:15;;;;;;;;;;;;;;;;;;5096672;28;45314;-66
2021/12/18 10:11:41;;;;;;;;;;;;;;;;;;5096457;28;46979;-67
2021/12/18 10:14:08;;;;;;;;;;;;;;;;;;5094295;28;46663;-66
2021/12/18 10:16:36;;;;;;;;;;;;;;;;;;5094450;28;43562;-67
2021/12/18 10:19:03;;;;;;;;;;;;;;;;;;5075857;28;41946;-67
2021/12/18 10:21:29;;;;;;;;;;;;;;;;;;5092782;28;45892;-66
2021/12/18 10:23:57;;;;;;;;;;;;;;;;;;5092607;28;46469;-66
2021/12/18 10:26:34;;;;;;;;;;;;;;;;;;5091646;28;40439;-65
2021/12/18 10:29:00;;;;;;;;;;;;;;;;;;5075605;28;46109;-65
2021/12/18 10:31:28;;;;;;;;;;;;;;;;;;5092783;28;45643;-65
2021/12/18 10:33:55;;;;;;;;;;;;;;;;;;5094887;28;45265;-65
2021/12/18 10:36:22;;;;;;;;;;;;;;;;;;5094492;28;42177;-66
2021/12/18 10:38:52;;;;;;;;;;;;;;;;;;5093453;28;43278;-66
2021/12/18 10:41:44;;;;;;;;;;;;;;;;;;5073140;28;46481;-66
2021/12/18 10:44:38;;;;;;;;;;;;;;;;;;5087837;28;19924;-65
2021/12/18 10:47:08;;;;;;;;;;;;;;;;;;5094167;28;41001;-66
2021/12/18 10:49:34;;;;;;;;;;;;;;;;;;5094138;28;46078;-66
2021/12/18 10:52:01;;;;;;;;;;;;;;;;;;5094292;28;47400;-65
2021/12/18 10:54:27;;;;;;;;;;;;;;;;;;5094307;28;46577;-66
2021/12/18 10:56:55;;;;;;;;;;;;;;;;;;5076930;28;40702;-66
2021/12/18 10:59:21;;;;;;;;;;;;;;;;;;5076758;28;43349;-65
2021/12/18 11:01:48;;;;;;;;;;;;;;;;;;5092866;28;46507;-66
2021/12/18 11:04:14;;;;;;;;;;;;;;;;;;5093284;28;47839;-65
2021/12/18 11:06:41;;;;;;;;;;;;;;;;;;5093303;28;45795;-65
2021/12/18 11:09:08;;;;;;;;;;;;;;;;;;5093555;28;44956;-66
2021/12/18 11:14:01;;;;;;;;;;;;;;;;;;5093256;28;44502;-65
2021/12/18 11:16:28;;;;;;;;;;;;;;;;;;5092975;28;41177;-65
2021/12/18 11:18:55;;;;;;;;;;;;;;;;;;5074171;28;45186;-66
2021/12/18 11:21:21;;;;;;;;;;;;;;;;;;5074394;28;45722;-66
2021/12/18 11:23:49;;;;;;;;;;;;;;;;;;5093054;28;43499;-66
2021/12/18 11:26:20;;;;;;;;;;;;;;;;;;5095076;28;42672;-66
2021/12/18 11:28:49;;;;;;;;;;;;;;;;;;5083280;28;45514;-66
2021/12/18 11:31:15;;;;;;;;;;;;;;;;;;5093394;28;46116;-66
2021/12/18 11:33:42;;;;;;;;;;;;;;;;;;5092753;28;46171;-66
2021/12/18 11:36:09;;;;;;;;;;;;;;;;;;5092335;28;42999;-66
2021/12/18 11:38:35;;;;;;;;;;;;;;;;;;5092220;28;44798;-66
2021/12/18 11:41:03;;;;;;;;;;;;;;;;;;5091252;28;44561;-65
2021/12/18 11:43:32;;;;;;;;;;;;;;;;;;5072919;28;43467;-66
2021/12/18 11:45:58;;;;;;;;;;;;;;;;;;5087986;28;43690;-66
2021/12/18 11:48:25;;;;;;;;;;;;;;;;;;5091740;28;43902;-66
2021/12/18 11:50:51;;;;;;;;;;;;;;;;;;5092229;28;45527;-66
2021/12/18 11:53:18;;;;;;;;;;;;;;;;;;5090331;28;45240;-65
2021/12/18 11:55:44;;;;;;;;;;;;;;;;;;5090395;28;44762;-65
2021/12/18 11:58:10;;;;;;;;;;;;;;;;;;5072438;28;44128;-65
2021/12/18 12:00:37;;;;;;;;;;;;;;;;;;5090424;28;46742;-65
2021/12/18 12:03:03;;;;;;;;;;;;;;;;;;5091418;28;46962;-65
2021/12/18 12:05:30;;;;;;;;;;;;;;;;;;5090260;28;42766;-65
2021/12/18 12:07:56;;;;;;;;;;;;;;;;;;5089630;28;45036;-65
2021/12/18 12:10:49;;;;;;;;;;;;;;;;;;5091479;28;46594;-66
2021/12/18 12:13:12;;;;;;;;;;;;;;;;;;5090226;28;46712;-66
2021/12/18 12:15:38;;;;;;;;;;;;;;;;;;5093863;28;43632;-66
2021/12/18 12:18:06;;;;;;;;;;;;;;;;;;5086493;28;43330;-66
2021/12/18 12:20:32;;;;;;;;;;;;;;;;;;5075337;28;45940;-66
2021/12/18 12:23:01;;;;;;;;;;;;;;;;;;5083203;28;44425;-65
2021/12/18 12:25:28;;;;;;;;;;;;;;;;;;5086305;28;42609;-66
2021/12/18 12:27:55;;;;;;;;;;;;;;;;;;5085082;28;45786;-65
2021/12/18 12:30:23;;;;;;;;;;;;;;;;;;5078604;28;46036;-65
2021/12/18 12:32:50;;;;;;;;;;;;;;;;;;5084326;28;46338;-65
2021/12/18 12:35:16;;;;;;;;;;;;;;;;;;5087387;28;41023;-66
2021/12/18 12:37:43;;;;;;;;;;;;;;;;;;5093301;28;42266;-66
2021/12/18 12:40:10;;;;;;;;;;;;;;;;;;5095700;28;47216;-65
2021/12/18 12:42:36;;;;;;;;;;;;;;;;;;5087931;28;45647;-65
2021/12/18 12:45:07;;;;;;;;;;;;;;;;;;5083936;28;45016;-65
2021/12/18 12:47:34;;;;;;;;;;;;;;;;;;5086296;28;46317;-66
2021/12/18 12:50:01;;;;;;;;;;;;;;;;;;5083626;28;46027;-65
2021/12/18 12:52:28;;;;;;;;;;;;;;;;;;5066801;28;46371;-67
2021/12/18 12:54:54;;;;;;;;;;;;;;;;;;5085699;28;41316;-66
2021/12/18 12:57:21;;;;;;;;;;;;;;;;;;5059289;28;42860;-65
2021/12/18 12:59:47;;;;;;;;;;;;;;;;;;5060694;28;45844;-65
2021/12/18 13:02:14;;;;;;;;;;;;;;;;;;5079618;28;44326;-65
2021/12/18 13:04:40;;;;;;;;;;;;;;;;;;5070561;28;43933;-65
2021/12/18 13:07:08;;;;;;;;;;;;;;;;;;5085107;28;43569;-66
2021/12/18 13:09:34;;;;;;;;;;;;;;;;;;5085141;28;48049;-66
2021/12/18 13:12:01;;;;;;;;;;;;;;;;;;5088366;28;43663;-66
2021/12/18 13:14:29;;;;;;;;;;;;;;;;;;5075232;28;46231;-66
2021/12/18 13:16:55;;;;;;;;;;;;;;;;;;5086986;28;43722;-66
2021/12/18 13:19:22;;;;;;;;;;;;;;;;;;5084635;28;47414;-67
2021/12/18 13:21:48;;;;;;;;;;;;;;;;;;5067735;28;45396;-67
2021/12/18 13:24:15;;;;;;;;;;;;;;;;;;5081145;28;43985;-66
2021/12/18 13:26:41;;;;;;;;;;;;;;;;;;5075062;28;46359;-66
2021/12/18 13:29:10;;;;;;;;;;;;;;;;;;5039586;28;47387;-66
2021/12/18 13:31:39;;;;;;;;;;;;;;;;;;5038520;28;44645;-66
2021/12/18 13:34:06;;;;;;;;;;;;;;;;;;5054733;28;44944;-65
2021/12/18 13:36:33;;;;;;;;;;;;;;;;;;5052292;28;45586;-66
2021/12/18 13:39:00;;;;;;;;;;;;;;;;;;5062659;28;47238;-66
2021/12/18 13:41:28;;;;;;;;;;;;;;;;;;5083670;28;45498;-66
2021/12/18 13:43:54;;;;;;;;;;;;;;;;;;5083266;28;43805;-66
2021/12/18 13:46:21;;;;;;;;;;;;;;;;;;5081447;28;43909;-66
2021/12/18 13:48:57;;;;;;;;;;;;;;;;;;5073496;28;46101;-66
2021/12/18 13:51:25;;;;;;;;;;;;;;;;;;5075524;28;46669;-66
2021/12/18 13:53:53;;;;;;;;;;;;;;;;;;5073415;28;45047;-65
2021/12/18 13:56:21;;;;;;;;;;;;;;;;;;5058857;28;45387;-66
2021/12/18 13:58:47;;;;;;;;;;;;;;;;;;5068737;28;47024;-66
2021/12/18 14:01:15;;;;;;;;;;;;;;;;;;5081636;28;45589;-66
2021/12/18 14:03:42;;;;;;;;;;;;;;;;;;5083414;28;44193;-66
2021/12/18 14:06:09;;;;;;;;;;;;;;;;;;5093847;28;43919;-66
2021/12/18 14:08:36;;;;;;;;;;;;;;;;;;5079908;28;47905;-67
2021/12/18 14:11:02;;;;;;;;;;;;;;;;;;5079857;28;45423;-66
2021/12/18 14:13:28;;;;;;;;;;;;;;;;;;5091866;28;43674;-66
2021/12/18 14:15:55;;;;;;;;;;;;;;;;;;5093647;28;45077;-66
2021/12/18 14:18:21;;;;;;;;;;;;;;;;;;5094220;28;47192;-66
2021/12/18 14:20:48;;;;;;;;;;;;;;;;;;5086075;28;44986;-66
2021/12/18 14:23:14;;;;;;;;;;;;;;;;;;5060308;28;45899;-66
2021/12/18 14:25:40;;;;;;;;;;;;;;;;;;5093948;28;46555;-66
2021/12/18 14:28:07;;;;;;;;;;;;;;;;;;5084812;28;47363;-66
2021/12/18 14:30:33;;;;;;;;;;;;;;;;;;5083848;28;46757;-67
2021/12/18 14:33:00;;;;;;;;;;;;;;;;;;5071583;28;44516;-66
2021/12/18 14:35:26;;;;;;;;;;;;;;;;;;5090313;28;43919;-66
2021/12/18 14:37:53;;;;;;;;;;;;;;;;;;5084683;28;47477;-66
2021/12/18 14:40:19;;;;;;;;;;;;;;;;;;5083892;28;45103;-67
2021/12/18 14:42:54;;;;;;;;;;;;;;;;;;5082786;28;42837;-67
2021/12/18 14:45:20;;;;;;;;;;;;;;;;;;5083007;28;44096;-67
2021/12/18 14:47:46;;;;;;;;;;;;;;;;;;5082732;28;47185;-66
2021/12/18 14:50:13;;;;;;;;;;;;;;;;;;5084289;28;45388;-66
2021/12/18 14:52:40;;;;;;;;;;;;;;;;;;5082324;28;43200;-67
2021/12/18 14:55:09;;;;;;;;;;;;;;;;;;5077194;28;43882;-66
2021/12/18 14:57:35;;;;;;;;;;;;;;;;;;5072278;28;47097;-66
2021/12/18 15:00:02;;;;;;;;;;;;;;;;;;5073345;28;46042;-66
2021/12/18 15:02:28;;;;;;;;;;;;;;;;;;5081891;28;40617;-67
2021/12/18 15:04:55;;;;;;;;;;;;;;;;;;5082290;28;44115;-66
2021/12/18 15:07:21;;;;;;;;;;;;;;;;;;5094280;28;45897;-66
2021/12/18 15:09:48;;;;;;;;;;;;;;;;;;5094374;28;47018;-71
2021/12/18 15:12:17;;;;;;;;;;;;;;;;;;5082049;28;43539;-72
2021/12/18 15:14:44;;;;;;;;;;;;;;;;;;5063940;28;43135;-71
2021/12/18 15:17:11;;;;;;;;;;;;;;;;;;5084625;28;45336;-71
2021/12/18 15:19:38;;;;;;;;;;;;;;;;;;5071969;28;45392;-77
2021/12/18 15:22:05;;;;;;;;;;;;;;;;;;5071994;28;43552;-73
2021/12/18 15:24:34;;;;;;;;;;;;;;;;;;5071571;28;44274;-73
2021/12/18 15:27:01;;;;;;;;;;;;;;;;;;5072363;28;44712;-74
2021/12/18 15:29:27;;;;;;;;;;;;;;;;;;5070026;28;44366;-73
2021/12/18 15:31:54;;;;;;;;;;;;;;;;;;5069993;28;42525;-74
2021/12/18 15:34:23;;;;;;;;;;;;;;;;;;5068125;28;46968;-74
2021/12/18 15:36:50;;;;;;;;;;;;;;;;;;5068134;28;44600;-72
2021/12/18 15:39:16;;;;;;;;;;;;;;;;;;5070529;28;44864;-72
2021/12/18 15:41:43;;;;;;;;;;;;;;;;;;5070243;28;43239;-72
2021/12/18 15:44:11;;;;;;;;;;;;;;;;;;5070902;28;44848;-72
2021/12/18 15:46:41;;;;;;;;;;;;;;;;;;5072511;28;44811;-72
2021/12/18 15:49:08;;;;;;;;;;;;;;;;;;5071743;28;46415;-72
2021/12/18 15:51:34;;;;;;;;;;;;;;;;;;5064962;28;43620;-72
2021/12/18 15:54:16;;;;;;;;;;;;;;;;;;5058464;28;19925;-73
2021/12/18 15:56:45;;;;;;;;;;;;;;;;;;5066382;28;49069;-73
2021/12/18 15:59:12;;;;;;;;;;;;;;;;;;5062079;28;45284;-73
2021/12/18 16:01:39;;;;;;;;;;;;;;;;;;5062261;28;43330;-72
2021/12/18 16:04:07;;;;;;;;;;;;;;;;;;5053192;28;44277;-72
2021/12/18 16:06:37;;;;;;;;;;;;;;;;;;5071438;28;47385;-72
2021/12/18 16:09:05;;;;;;;;;;;;;;;;;;5061348;28;45382;-72
2021/12/18 16:11:32;;;;;;;;;;;;;;;;;;5063278;28;39655;-72
2021/12/18 16:13:58;;;;;;;;;;;;;;;;;;5071774;28;46419;-72
2021/12/18 16:16:26;;;;;;;;;;;;;;;;;;5060700;28;47341;-72
2021/12/18 16:18:53;;;;;;;;;;;;;;;;;;5073954;28;43980;-71
2021/12/18 16:21:20;;;;;;;;;;;;;;;;;;5096384;28;43466;-72
2021/12/18 16:23:47;;;;;;;;;;;;;;;;;;5071563;28;44226;-72
2021/12/18 16:26:14;;;;;;;;;;;;;;;;;;5081865;28;44587;-72
2021/12/18 16:28:41;;;;;;;;;;;;;;;;;;5081016;28;47180;-72
2021/12/18 16:31:08;;;;;;;;;;;;;;;;;;5069450;28;42688;-72
2021/12/18 16:33:35;;;;;;;;;;;;;;;;;;5108294;28;41907;-72
2021/12/18 16:36:01;;;;;;;;;;;;;;;;;;5091508;28;48682;-72
2021/12/18 16:38:38;;;;;;;;;;;;;;;;;;5101484;28;45345;-72
2021/12/18 16:41:07;;;;;;;;;;;;;;;;;;5084577;28;40016;-73
2021/12/18 16:43:34;;;;;;;;;;;;;;;;;;5103396;28;44221;-72
2021/12/18 16:46:00;;;;;;;;;;;;;;;;;;5086917;28;46127;-72
2021/12/18 16:48:28;;;;;;;;;;;;;;;;;;5089478;28;45507;-72
2021/12/18 16:50:54;;;;;;;;;;;;;;;;;;5087738;28;45332;-72
2021/12/18 16:53:21;;;;;;;;;;;;;;;;;;5101183;28;45449;-72
2021/12/18 16:55:48;;;;;;;;;;;;;;;;;;5105713;28;47418;-73
2021/12/18 16:58:15;;;;;;;;;;;;;;;;;;5069739;28;46642;-72
2021/12/18 17:00:41;;;;;;;;;;;;;;;;;;5090685;28;42786;-73
2021/12/18 17:03:08;;;;;;;;;;;;;;;;;;5087854;28;45420;-72
2021/12/18 17:05:35;;;;;;;;;;;;;;;;;;5086369;28;47172;-72
2021/12/18 17:08:01;;;;;;;;;;;;;;;;;;5090554;28;46599;-72
2021/12/18 17:10:29;;;;;;;;;;;;;;;;;;5094213;28;42651;-73
2021/12/18 17:12:56;;;;;;;;;;;;;;;;;;5083433;28;45575;-73
2021/12/18 17:15:25;;;;;;;;;;;;;;;;;;5098133;28;45705;-71
2021/12/18 17:17:51;;;;;;;;;;;;;;;;;;5084346;28;45114;-72
2021/12/18 17:20:18;;;;;;;;;;;;;;;;;;5095023;28;40530;-72
2021/12/18 17:22:45;;;;;;;;;;;;;;;;;;5102508;28;43917;-72
2021/12/18 17:25:11;;;;;;;;;;;;;;;;;;5077269;28;47240;-72
2021/12/18 17:27:38;;;;;;;;;;;;;;;;;;5076050;28;46346;-72
2021/12/18 17:30:05;;;;;;;;;;;;;;;;;;5102839;28;43375;-72
2021/12/18 17:32:31;;;;;;;;;;;;;;;;;;5089572;28;46295;-72
2021/12/18 17:34:59;;;;;;;;;;;;;;;;;;5081766;28;46683;-73